createdAt,value
2019-05-02T00:07:08.991Z,99608.47
2019-05-02T00:15:27.750Z,99593.48
2019-05-02T00:17:44.905Z,99587.45
2019-05-02T00:22:48.016Z,99592.77
2019-05-02T00:25:15.930Z,99587.83
2019-05-02T00:27:47.442Z,99581.80
2019-05-02T00:36:09.474Z,99587.59
2019-05-02T00:38:56.121Z,99580.35
2019-05-02T00:41:23.872Z,99580.35
2019-05-02T00:44:10.932Z,99577.33
2019-05-02T00:46:58.373Z,99586.28
2019-05-02T00:52:03.975Z,99582.89
2019-05-02T00:54:31.749Z,99572.61
2019-05-02T00:57:19.934Z,99570.67
2019-05-02T00:59:47.498Z,99570.67
2019-05-02T01:02:35.954Z,99566.29
2019-05-02T01:07:56.014Z,99569.64
2019-05-02T01:10:22.473Z,99570.36
2019-05-02T01:12:51.213Z,99569.25
2019-05-02T01:15:18.982Z,99573.54
2019-05-02T01:17:46.741Z,99573.54
2019-05-02T01:20:14.617Z,99569.91
2019-05-02T01:25:38.793Z,99565.58
2019-05-02T01:28:25.271Z,99561.23
2019-05-02T01:31:13.242Z,99555.77
2019-05-02T01:34:00.162Z,99556.73
2019-05-02T01:36:46.899Z,99551.98
2019-05-02T01:39:14.754Z,99551.98
2019-05-02T01:46:53.965Z,99552.40
2019-05-02T01:49:21.849Z,99539.03
2019-05-02T01:52:09.364Z,99541.78
2019-05-02T01:54:40.753Z,99543.21
2019-05-02T01:57:08.638Z,99543.21
2019-05-02T01:59:54.911Z,99528.81
2019-05-02T02:02:22.674Z,99536.05
2019-05-02T02:07:23.580Z,99530.28
2019-05-02T02:09:51.271Z,99530.28
2019-05-02T02:12:42.998Z,99526.61
2019-05-02T02:17:53.718Z,99524.41
2019-05-02T02:20:40.113Z,99522.00
2019-05-02T02:23:26.578Z,99525.35
2019-05-02T02:28:44.975Z,99526.19
2019-05-02T02:31:12.790Z,99532.78
2019-05-02T02:33:59.175Z,99527.59
2019-05-02T02:39:00.089Z,99524.12
2019-05-02T02:41:52.263Z,99516.30
2019-05-02T02:47:11.835Z,99520.02
2019-05-02T02:49:36.936Z,99520.02
2019-05-02T02:52:06.683Z,99517.50
2019-05-02T02:54:36.628Z,99519.52
2019-05-02T02:57:03.385Z,99519.36
2019-05-02T02:59:31.166Z,99512.36
2019-05-02T03:02:17.633Z,99510.73
2019-05-02T03:04:46.438Z,99514.91
2019-05-02T03:07:24.117Z,99514.91
2019-05-02T03:12:49.692Z,99507.63
2019-05-02T03:15:36.084Z,99510.53
2019-05-02T03:23:15.057Z,99514.41
2019-05-02T03:26:08.106Z,99508.75
2019-05-02T03:28:34.522Z,99508.75
2019-05-02T03:31:25.223Z,99512.38
2019-05-02T03:34:08.991Z,99511.58
2019-05-02T03:36:37.298Z,99511.58
2019-05-02T03:41:39.422Z,99508.80
2019-05-02T03:44:11.830Z,99508.80
2019-05-02T03:46:36.593Z,99513.41
2019-05-02T03:57:03.058Z,99496.11
2019-05-02T04:02:03.421Z,99493.62
2019-05-02T04:04:54.121Z,99488.68
2019-05-02T04:07:19.333Z,99488.68
2019-05-02T04:10:05.774Z,99487.86
2019-05-02T04:12:33.439Z,99475.82
2019-05-02T04:20:55.069Z,99477.53
2019-05-02T04:23:41.445Z,99477.06
2019-05-02T04:26:12.753Z,99477.06
2019-05-02T04:28:39.032Z,99478.64
2019-05-02T04:31:31.452Z,99479.00
2019-05-02T04:33:58.959Z,99479.00
2019-05-02T04:36:46.539Z,99483.48
2019-05-02T04:39:20.558Z,99487.20
2019-05-02T04:42:05.536Z,99485.88
2019-05-02T04:45:11.753Z,99479.96
2019-05-02T04:47:21.814Z,99479.96
2019-05-02T04:52:30.182Z,99475.13
2019-05-02T04:55:26.138Z,99471.86
2019-05-02T04:57:51.029Z,99471.86
2019-05-02T05:00:38.978Z,99465.19
2019-05-02T05:03:07.274Z,99464.81
2019-05-02T05:05:59.388Z,99464.81
2019-05-02T05:08:26.474Z,99465.20
2019-05-02T05:11:14.015Z,99466.63
2019-05-02T05:13:40.964Z,99465.05
2019-05-02T05:19:14.124Z,99461.37
2019-05-02T05:22:04.767Z,99464.77
2019-05-02T05:27:27.398Z,99463.28
2019-05-02T05:30:02.271Z,99471.38
2019-05-02T05:32:24.214Z,99470.49
2019-05-02T05:34:52.153Z,99472.56
2019-05-02T05:37:19.932Z,99474.10
2019-05-02T05:39:50.923Z,99474.10
2019-05-02T05:42:37.786Z,99476.84
2019-05-02T05:45:12.042Z,99480.36
2019-05-02T05:47:34.856Z,99476.46
2019-05-02T05:50:02.508Z,99477.79
2019-05-02T05:52:32.938Z,99474.86
2019-05-02T05:54:59.868Z,99474.95
2019-05-02T05:57:27.980Z,99474.05
2019-05-02T05:59:58.243Z,99475.61
2019-05-02T06:02:25.334Z,99475.30
2019-05-02T06:04:55.176Z,99468.28
2019-05-02T06:07:22.375Z,99468.28
2019-05-02T06:09:50.332Z,99467.19
2019-05-02T06:12:18.064Z,99469.73
2019-05-02T06:14:46.529Z,99468.98
2019-05-02T06:17:17.507Z,99468.98
2019-05-02T06:19:53.428Z,99467.02
2019-05-02T06:22:24.329Z,99461.81
2019-05-02T06:24:50.758Z,99462.23
2019-05-02T06:27:20.688Z,99462.23
2019-05-02T06:29:46.272Z,99462.47
2019-05-02T06:32:18.763Z,99460.73
2019-05-02T06:34:46.338Z,99454.38
2019-05-02T06:37:15.634Z,99445.86
2019-05-02T06:39:43.770Z,99448.59
2019-05-02T06:42:11.489Z,99444.06
2019-05-02T06:44:41.178Z,99444.06
2019-05-02T06:47:08.932Z,99446.55
2019-05-02T06:49:36.707Z,99438.97
2019-05-02T06:52:04.665Z,99436.41
2019-05-02T06:54:32.333Z,99433.11
2019-05-02T06:57:01.434Z,99433.11
2019-05-02T06:59:29.418Z,99432.77
2019-05-02T07:02:00.087Z,99425.12
2019-05-02T07:04:27.834Z,99424.23
2019-05-02T07:06:59.759Z,99424.23
2019-05-02T07:09:40.024Z,99421.60
2019-05-02T07:12:01.644Z,99421.60
2019-05-02T07:14:29.818Z,99429.31
2019-05-02T07:17:26.635Z,99429.78
2019-05-02T07:19:58.840Z,99429.78
2019-05-02T07:22:27.295Z,99430.73
2019-05-02T07:24:55.176Z,99430.73
2019-05-02T07:27:42.346Z,99425.47
2019-05-02T07:30:10.174Z,99426.73
2019-05-02T07:32:38.183Z,99429.61
2019-05-02T07:35:05.811Z,99435.09
2019-05-02T07:37:34.738Z,99435.09
2019-05-02T07:40:04.985Z,99434.55
2019-05-02T07:42:36.829Z,99429.78
2019-05-02T07:45:09.379Z,99429.78
2019-05-02T07:47:34.598Z,99426.77
2019-05-02T07:50:05.320Z,99426.77
2019-05-02T07:52:33.667Z,99426.16
2019-05-02T07:55:04.858Z,99427.80
2019-05-02T07:57:32.468Z,99427.80
2019-05-02T08:00:02.486Z,99436.27
2019-05-02T08:02:30.609Z,99438.08
2019-05-02T08:05:02.906Z,99430.45
2019-05-02T08:07:34.225Z,99430.45
2019-05-02T08:10:00.138Z,99431.20
2019-05-02T08:12:27.898Z,99426.22
2019-05-02T08:14:55.869Z,99426.22
2019-05-02T08:17:23.489Z,99430.58
2019-05-02T08:19:51.135Z,99431.30
2019-05-02T08:22:21.863Z,99433.77
2019-05-02T08:24:49.553Z,99435.52
2019-05-02T08:27:37.778Z,99431.85
2019-05-02T08:30:06.007Z,99431.85
2019-05-02T08:32:36.837Z,99433.29
2019-05-02T08:35:04.565Z,99433.05
2019-05-02T08:37:35.280Z,99432.47
2019-05-02T08:40:05.418Z,99432.47
2019-05-02T08:42:32.627Z,99443.70
2019-05-02T08:45:01.516Z,99443.70
2019-05-02T08:47:30.602Z,99439.38
2019-05-02T08:49:58.298Z,99439.38
2019-05-02T08:52:26.308Z,99434.30
2019-05-02T08:54:53.920Z,99434.30
2019-05-02T08:57:23.795Z,99436.98
2019-05-02T08:59:55.503Z,99445.02
2019-05-02T09:02:21.084Z,99439.66
2019-05-02T09:04:58.333Z,99441.55
2019-05-02T09:07:19.737Z,99441.55
2019-05-02T09:09:47.520Z,99442.27
2019-05-02T09:12:15.362Z,99442.27
2019-05-02T09:14:46.114Z,99445.46
2019-05-02T09:17:31.824Z,99437.27
2019-05-02T09:20:00.300Z,99438.19
2019-05-02T09:22:22.043Z,99434.45
2019-05-02T09:24:49.452Z,99438.44
2019-05-02T09:27:17.147Z,99432.78
2019-05-02T09:29:46.011Z,99427.58
2019-05-02T09:32:17.185Z,99427.58
2019-05-02T09:34:43.077Z,99426.41
2019-05-02T09:37:12.202Z,99425.03
2019-05-02T09:39:41.531Z,99424.50
2019-05-02T09:42:12.350Z,99420.14
2019-05-02T09:44:43.555Z,99414.89
2019-05-02T09:47:27.291Z,99414.89
2019-05-02T09:50:09.587Z,99402.72
2019-05-02T09:52:39.753Z,99402.72
2019-05-02T09:55:08.103Z,99401.95
2019-05-02T09:57:35.839Z,99394.78
2019-05-02T10:00:03.613Z,99384.30
2019-05-02T10:02:32.525Z,99386.95
2019-05-02T10:05:01.804Z,99390.45
2019-05-02T10:07:29.682Z,99385.16
2019-05-02T10:10:03.150Z,99385.16
2019-05-02T10:12:27.729Z,99390.72
2019-05-02T10:14:55.494Z,99390.14
2019-05-02T10:17:23.901Z,99390.14
2019-05-02T10:19:57.036Z,99382.22
2019-05-02T10:22:22.822Z,99384.16
2019-05-02T10:24:53.707Z,99384.64
2019-05-02T10:27:25.463Z,99372.33
2019-05-02T10:29:53.179Z,99357.66
2019-05-02T10:32:22.681Z,99357.66
2019-05-02T10:34:56.751Z,99356.66
2019-05-02T10:37:23.607Z,99343.08
2019-05-02T10:39:52.536Z,99343.08
2019-05-02T10:42:22.086Z,99337.70
2019-05-02T10:44:52.042Z,99335.17
2019-05-02T10:47:22.210Z,99321.03
2019-05-02T10:49:54.328Z,99306.55
2019-05-02T10:52:29.548Z,99306.10
2019-05-02T10:54:52.826Z,99310.00
2019-05-02T10:57:21.967Z,99298.86
2019-05-02T10:59:50.075Z,99299.33
2019-05-02T11:02:39.696Z,99296.90
2019-05-02T11:05:16.801Z,99294.88
2019-05-02T11:07:45.207Z,99297.40
2019-05-02T11:10:15.351Z,99292.22
2019-05-02T11:12:52.636Z,99292.22
2019-05-02T11:15:38.803Z,99278.67
2019-05-02T11:18:06.754Z,99275.23
2019-05-02T11:20:34.496Z,99264.26
2019-05-02T11:23:05.335Z,99264.26
2019-05-02T11:25:33.309Z,99264.91
2019-05-02T11:30:32.377Z,99250.50
2019-05-02T11:33:02.887Z,99249.73
2019-05-02T11:35:34.234Z,99246.51
2019-05-02T11:38:02.632Z,99246.51
2019-05-02T11:40:32.170Z,99244.48
2019-05-02T11:43:02.803Z,99243.59
2019-05-02T11:45:32.467Z,99232.81
2019-05-02T11:48:01.743Z,99232.28
2019-05-02T11:50:33.886Z,99232.28
2019-05-02T11:52:59.338Z,99230.36
2019-05-02T11:55:28.960Z,99236.78
2019-05-02T11:58:01.039Z,99227.36
2019-05-02T12:00:25.955Z,99227.36
2019-05-02T12:03:12.653Z,99235.86
2019-05-02T12:05:43.497Z,99229.95
2019-05-02T12:08:12.838Z,99221.83
2019-05-02T12:10:43.005Z,99223.27
2019-05-02T12:13:16.023Z,99223.27
2019-05-02T12:15:44.074Z,99211.43
2019-05-02T12:18:12.090Z,99210.66
2019-05-02T12:20:42.508Z,99203.11
2019-05-02T12:23:10.241Z,99202.27
2019-05-02T12:25:56.640Z,99197.79
2019-05-02T12:28:43.122Z,99202.24
2019-05-02T12:36:54.917Z,99202.45
2019-05-02T12:39:24.895Z,99192.89
2019-05-02T12:42:05.170Z,99192.89
2019-05-02T12:44:22.347Z,99190.17
2019-05-02T12:49:44.507Z,99193.94
2019-05-02T12:52:32.065Z,99194.98
2019-05-02T12:55:13.229Z,99188.98
2019-05-02T12:57:29.494Z,99186.78
2019-05-02T12:59:57.251Z,99190.88
2019-05-02T13:05:08.204Z,99195.50
2019-05-02T13:07:36.214Z,99186.22
2019-05-02T13:10:03.902Z,99186.95
2019-05-02T13:12:34.369Z,99179.66
2019-05-02T13:15:04.019Z,99164.31
2019-05-02T13:17:35.679Z,99157.80
2019-05-02T13:23:08.426Z,99163.17
2019-05-02T13:25:37.046Z,99159.23
2019-05-02T13:28:05.763Z,99158.73
2019-05-02T13:30:54.707Z,99153.86
2019-05-02T13:36:16.680Z,99145.80
2019-05-02T13:39:03.142Z,99154.73
2019-05-02T13:41:32.496Z,99153.55
2019-05-02T13:44:02.140Z,99157.05
2019-05-02T13:46:29.911Z,99160.70
2019-05-02T13:48:57.538Z,99142.83
2019-05-02T13:51:25.736Z,99137.83
2019-05-02T13:54:12.659Z,99137.83
2019-05-02T13:56:59.071Z,99138.22
2019-05-02T13:59:26.765Z,99135.25
2019-05-02T14:04:43.136Z,99131.14
2019-05-02T14:07:29.537Z,99126.16
2019-05-02T14:10:15.996Z,99126.16
2019-05-02T14:12:48.880Z,99120.09
2019-05-02T14:15:32.356Z,99119.27
2019-05-02T14:17:48.183Z,99117.75
2019-05-02T14:20:28.147Z,99115.97
2019-05-02T14:23:04.390Z,99110.34
2019-05-02T14:25:44.868Z,99106.94
2019-05-02T14:28:36.125Z,99108.70
2019-05-02T14:30:49.502Z,99105.44
2019-05-02T14:33:48.565Z,99097.19
2019-05-02T14:36:26.272Z,99097.19
2019-05-02T14:39:12.646Z,99097.59
2019-05-02T14:41:42.558Z,99098.77
2019-05-02T14:44:11.886Z,99107.38
2019-05-02T14:46:39.620Z,99113.60
2019-05-02T14:49:07.362Z,99105.70
2019-05-02T14:51:57.280Z,99100.29
2019-05-02T14:54:43.819Z,99095.77
2019-05-02T15:02:58.337Z,99103.57
2019-05-02T15:08:02.598Z,99099.86
2019-05-02T15:10:33.331Z,99096.33
2019-05-02T15:12:59.749Z,99096.33
2019-05-02T15:15:32.286Z,99095.36
2019-05-02T15:20:53.903Z,99100.23
2019-05-02T15:23:22.770Z,99097.70
2019-05-02T15:25:54.398Z,99106.15
2019-05-02T15:28:22.678Z,99111.14
2019-05-02T15:31:08.551Z,99111.14
2019-05-02T15:36:46.388Z,99116.00
2019-05-02T15:41:53.775Z,99115.11
2019-05-02T15:44:26.874Z,99121.56
2019-05-02T15:55:03.892Z,99125.64
2019-05-02T15:57:37.666Z,99125.64
2019-05-02T16:00:23.001Z,99126.98
2019-05-02T16:05:53.209Z,99116.43
2019-05-02T16:08:21.530Z,99116.43
2019-05-02T16:11:08.952Z,99109.70
2019-05-02T16:13:36.667Z,99105.36
2019-05-02T16:16:05.582Z,99105.36
2019-05-02T16:18:40.201Z,99105.53
2019-05-02T16:24:15.000Z,99109.91
2019-05-02T16:26:46.780Z,99109.88
2019-05-02T16:29:19.544Z,99109.70
2019-05-02T16:32:03.610Z,99105.87
2019-05-02T16:34:44.431Z,99106.72
2019-05-02T16:37:20.195Z,99107.20
2019-05-02T16:39:49.628Z,99108.21
2019-05-02T16:42:35.981Z,99108.21
2019-05-02T16:45:03.727Z,99102.68
2019-05-02T16:47:58.710Z,99102.68
2019-05-02T16:50:19.629Z,99101.34
2019-05-02T16:53:05.994Z,99102.52
2019-05-02T16:55:53.678Z,99108.55
2019-05-02T17:03:57.784Z,99115.03
2019-05-02T17:09:33.864Z,99118.17
2019-05-02T17:12:06.522Z,99114.81
2019-05-02T17:14:54.905Z,99119.48
2019-05-02T17:20:19.001Z,99122.95
2019-05-02T17:22:50.188Z,99125.79
2019-05-02T17:25:46.638Z,99143.45
2019-05-02T17:28:38.041Z,99147.21
2019-05-02T17:30:52.646Z,99147.21
2019-05-02T17:36:02.117Z,99162.63
2019-05-02T17:38:48.922Z,99161.56
2019-05-02T17:41:16.759Z,99170.05
2019-05-02T17:43:44.585Z,99170.05
2019-05-02T17:46:12.573Z,99171.31
2019-05-02T17:48:42.875Z,99172.50
2019-05-02T17:51:42.510Z,99172.50
2019-05-02T17:54:22.800Z,99175.94
2019-05-02T17:56:52.299Z,99179.41
2019-05-02T18:07:36.138Z,99178.64
2019-05-02T18:10:24.858Z,99174.12
2019-05-02T18:13:12.025Z,99174.12
2019-05-02T18:15:41.522Z,99180.45
2019-05-02T18:18:27.600Z,99185.25
2019-05-02T18:21:17.728Z,99183.85
2019-05-02T18:24:05.942Z,99183.85
2019-05-02T18:26:43.718Z,99178.80
2019-05-02T18:29:06.490Z,99178.80
2019-05-02T18:31:49.751Z,99184.38
2019-05-02T18:34:36.110Z,99185.85
2019-05-02T18:37:22.572Z,99187.84
2019-05-02T18:40:09.033Z,99187.84
2019-05-02T18:42:36.696Z,99181.24
2019-05-02T18:45:04.449Z,99181.24
2019-05-02T18:47:53.960Z,99187.88
2019-05-02T18:50:22.341Z,99194.69
2019-05-02T18:53:09.252Z,99189.14
2019-05-02T18:55:48.588Z,99192.80
2019-05-02T18:58:25.034Z,99192.80
2019-05-02T19:00:52.732Z,99195.77
2019-05-02T19:03:39.481Z,99197.04
2019-05-02T19:06:39.087Z,99199.98
2019-05-02T19:09:21.854Z,99199.98
2019-05-02T19:11:46.666Z,99199.91
2019-05-02T19:14:16.672Z,99195.57
2019-05-02T19:17:05.449Z,99199.88
2019-05-02T19:19:36.924Z,99202.77
2019-05-02T19:22:47.940Z,99201.92
2019-05-02T19:25:25.563Z,99211.76
2019-05-02T19:28:00.043Z,99211.76
2019-05-02T19:33:25.150Z,99208.75
2019-05-02T19:35:54.684Z,99205.19
2019-05-02T19:38:42.797Z,99212.63
2019-05-02T19:41:11.696Z,99212.63
2019-05-02T19:43:45.737Z,99213.76
2019-05-02T19:46:12.126Z,99216.48
2019-05-02T19:48:57.120Z,99216.48
2019-05-02T19:51:20.333Z,99218.19
2019-05-02T19:53:59.672Z,99218.19
2019-05-02T19:56:23.357Z,99219.58
2019-05-02T19:58:52.183Z,99217.22
2019-05-02T20:03:56.792Z,99216.59
2019-05-02T20:06:41.806Z,99216.59
2019-05-02T20:12:42.415Z,99215.84
2019-05-02T20:14:38.228Z,99221.78
2019-05-02T20:17:24.083Z,99223.28
2019-05-02T20:23:01.689Z,99216.67
2019-05-02T20:28:04.539Z,99222.34
2019-05-02T20:31:02.869Z,99218.22
2019-05-02T20:33:39.020Z,99218.22
2019-05-02T20:36:06.636Z,99214.64
2019-05-02T20:38:36.915Z,99214.64
2019-05-02T20:41:23.353Z,99218.34
2019-05-02T20:44:02.524Z,99217.77
2019-05-02T20:46:48.634Z,99215.31
2019-05-02T20:52:41.740Z,99213.00
2019-05-02T20:55:09.502Z,99213.20
2019-05-02T21:00:42.724Z,99211.23
2019-05-02T21:03:11.997Z,99211.23
2019-05-02T21:11:28.591Z,99225.11
2019-05-02T21:13:56.304Z,99218.66
2019-05-02T21:16:24.126Z,99218.66
2019-05-02T21:18:51.895Z,99218.45
2019-05-02T21:21:21.826Z,99221.67
2019-05-02T21:23:55.462Z,99227.44
2019-05-02T21:26:23.074Z,99224.22
2019-05-02T21:31:44.888Z,99238.83
2019-05-02T21:42:11.049Z,99255.17
2019-05-02T21:44:38.892Z,99252.44
2019-05-02T21:47:09.418Z,99252.44
2019-05-02T21:50:08.008Z,99265.95
2019-05-02T21:55:45.686Z,99268.63
2019-05-02T21:58:32.429Z,99273.48
2019-05-02T22:01:22.163Z,99273.48
2019-05-02T22:06:56.420Z,99279.63
2019-05-02T22:09:29.157Z,99279.63
2019-05-02T22:12:01.219Z,99287.67
2019-05-02T22:14:28.895Z,99287.67
2019-05-02T22:16:56.646Z,99288.31
2019-05-02T22:19:26.931Z,99291.14
2019-05-02T22:22:13.396Z,99292.84
2019-05-02T22:24:59.827Z,99292.84
2019-05-02T22:30:32.748Z,99301.22
2019-05-02T22:33:02.664Z,99301.22
2019-05-02T22:35:32.576Z,99299.48
2019-05-02T22:38:19.041Z,99295.69
2019-05-02T22:41:05.491Z,99299.20
2019-05-02T22:46:26.126Z,99299.44
2019-05-02T22:48:53.838Z,99299.44
2019-05-02T22:51:40.219Z,99310.65
2019-05-02T22:54:27.737Z,99310.65
2019-05-02T22:56:37.666Z,99309.80
2019-05-02T22:59:07.397Z,99307.64
2019-05-02T23:01:35.287Z,99309.44
2019-05-02T23:04:03.461Z,99310.47
2019-05-02T23:06:50.094Z,99323.68
2019-05-02T23:09:17.829Z,99323.80
2019-05-02T23:11:46.116Z,99324.53
2019-05-02T23:14:32.704Z,99324.62
2019-05-02T23:17:19.163Z,99324.73
2019-05-02T23:20:05.556Z,99324.73
2019-05-02T23:22:33.285Z,99328.91
2019-05-02T23:25:19.725Z,99330.35
2019-05-02T23:30:43.854Z,99332.34
2019-05-02T23:33:32.696Z,99334.41
2019-05-02T23:36:01.981Z,99334.41
2019-05-02T23:38:33.285Z,99331.98
2019-05-02T23:41:02.087Z,99335.69
2019-05-02T23:46:18.603Z,99326.73
2019-05-02T23:48:46.364Z,99326.73
2019-05-02T23:51:32.855Z,99334.59
2019-05-02T23:54:19.255Z,99333.26
2019-05-02T23:57:05.671Z,99322.63
2019-05-02T23:59:33.324Z,99316.80
